Ana Sayfa
METAR-TAF:

METAR-TAF

Havaalanları :

Weno, Mikronezya

Enlem: 07-28N, Boylam: 151-51E, yükseklik: 3 m

Güncel hava durumu gözlemi

Rapor saat 07:50 UTC de 37 dakika önce yapıldı.
Rüzgar kuzeydoğudan 6 kt
Sıcaklık 28°C
Nem 84%
Basınç 1010 hPa
Görüş mesafesi: 24.1 km
1200 ft yükseklikte parçalı bulutlu
12000 ft yükseklikte parçalı çok bulutlu
28000 ft yükseklikte çok bulutlu

METAR: PTKK 220750Z 05006KT 15SM SCT012 BKN120 OVC280 28/25 A2982 RMK SLP100 T02770252

Saat: 18:27 (08:27 UTC)

Tahmin

Rapor saat 05:40 UTC de 2 saat ve 47 dakika önce yapıldı.
Ayın 22'si saat 06 UTC'den ayın 23'si saat 06 UTC'ye kadar geçerli Tahmin
Rüzgar doğudan 11 kt
Görüş mesafesi: 10 km
1400 ft yükseklikte az bulutlu
3000 ft yükseklikte parçalı bulutlu
12000 ft yükseklikte parçalı bulutlu
Civarda sağanaklar,

TAF: PTKK 220540Z 2206/2306 08011KT P6SM VCSH FEW014 SCT030 SCT120

4.000'den fazla havaalanı için hava durumu gözlemleri ve tahminleri (METAR ve TAF raporları).

Kullanılabilir istasyonlar harita üzerinde sarı ve kırmızı noktalarla gösterilir.

İstasyonun adını görmek için fareyi noktanın üzerinde gezdirin.

Sonrasında hava gözlem ve tahminlerini görmek için tıklayın.

Haritayı değiştirmek için: yaklaştırmak için siyah artı işaretli yeşil düğmeye ve uzaklaştırmak için de eksi işaretli düğmeye hızla tıklayın; bitişik haritalar için yeşil okları kullanın.


METAR-TAF: